Time;durP1;ratioP1;P1;durP2;ratioP2;P2;SDS_P1;SDS_P2;PMS_P1;PMS_P2;Temp;Humidity;BMP_temperature;BMP_pressure;BME280_temperature;BME280_humidity;BME280_pressure;Samples;Min_cycle;Max_cycle;Signal;HPM_P1;HPM_P2
2022/03/14 00:01:20;;;;;;;45.75;25.75;;;-0.80;77.80;;;;;;5053038;28;20059;-76
2022/03/14 00:03:50;;;;;;;47.97;23.42;;;-0.90;78.40;;;;;;5052966;28;20079;-71
2022/03/14 00:06:16;;;;;;;47.20;26.63;;;-0.90;78.20;;;;;;5052017;28;20055;-70
2022/03/14 00:08:44;;;;;;;55.92;25.90;;;-0.90;78.90;;;;;;5051674;28;20517;-71
2022/03/14 00:11:14;;;;;;;49.10;26.10;;;-0.90;78.20;;;;;;5051636;28;20447;-70
2022/03/14 00:13:43;;;;;;;45.85;23.70;;;-0.90;78.20;;;;;;5052934;28;20018;-70
2022/03/14 00:16:09;;;;;;;44.85;25.15;;;-0.90;79.70;;;;;;5052936;28;20108;-76
2022/03/14 00:18:36;;;;;;;50.30;24.25;;;-0.90;78.10;;;;;;5053073;28;20052;-77
2022/03/14 00:21:02;;;;;;;46.05;24.08;;;-0.90;78.30;;;;;;5052911;28;20025;-77
2022/03/14 00:23:28;;;;;;;48.90;24.95;;;-0.90;78.20;;;;;;5051375;28;20037;-77
2022/03/14 00:25:54;;;;;;;53.55;26.25;;;-0.90;78.00;;;;;;5051545;28;20090;-78
2022/03/14 00:28:20;;;;;;;45.17;24.95;;;-0.90;79.10;;;;;;5052674;28;20025;-77
2022/03/14 00:30:46;;;;;;;51.90;25.17;;;-0.90;78.30;;;;;;5052756;28;20017;-70
2022/03/14 00:33:12;;;;;;;51.40;25.45;;;-0.90;78.10;;;;;;5052774;28;20029;-77
2022/03/14 00:35:39;;;;;;;51.03;26.65;;;-0.90;78.10;;;;;;5052711;28;20025;-71
2022/03/14 00:38:05;;;;;;;44.85;23.55;;;-0.90;78.00;;;;;;5052584;28;20021;-70
2022/03/14 00:40:30;;;;;;;45.47;24.17;;;-1.00;77.60;;;;;;5052729;28;20413;-76
2022/03/14 00:42:56;;;;;;;44.95;27.52;;;-1.00;77.80;;;;;;5052467;28;20025;-70
2022/03/14 00:45:24;;;;;;;49.17;25.05;;;-1.10;78.60;;;;;;5052543;28;20032;-77
2022/03/14 00:47:50;;;;;;;44.20;24.35;;;-1.20;79.20;;;;;;5051278;28;20025;-77
2022/03/14 00:50:16;;;;;;;46.22;24.33;;;-1.30;79.80;;;;;;5052598;28;20038;-77
2022/03/14 00:52:41;;;;;;;55.08;27.40;;;-1.40;80.20;;;;;;5052466;28;20025;-77
2022/03/14 00:55:07;;;;;;;59.22;27.38;;;-1.40;80.90;;;;;;5052566;28;20017;-77
2022/03/14 00:57:33;;;;;;;61.53;28.35;;;-1.40;82.00;;;;;;5056216;28;20100;-77
2022/03/14 00:59:59;;;;;;;48.40;25.95;;;-1.40;82.90;;;;;;5056103;28;20029;-71
2022/03/14 01:02:24;;;;;;;55.75;27.90;;;-1.50;82.30;;;;;;5055967;28;20021;-71
2022/03/14 01:04:50;;;;;;;54.10;28.00;;;-1.50;82.80;;;;;;5055906;28;20029;-72
2022/03/14 01:07:16;;;;;;;54.47;26.73;;;-1.50;83.50;;;;;;5054703;28;20048;-70
2022/03/14 01:09:41;;;;;;;64.82;29.55;;;-1.50;83.70;;;;;;5055967;28;20017;-70
2022/03/14 01:12:08;;;;;;;56.50;26.80;;;-1.50;83.80;;;;;;5055802;28;20029;-70
2022/03/14 01:14:33;;;;;;;51.80;27.45;;;-1.50;84.00;;;;;;5055764;28;20390;-70
2022/03/14 01:16:59;;;;;;;55.40;28.95;;;-1.60;83.80;;;;;;5054755;28;20083;-70
2022/03/14 01:19:24;;;;;;;57.90;28.20;;;-1.60;84.40;;;;;;5055921;28;20017;-71
2022/03/14 01:21:50;;;;;;;55.20;28.33;;;-1.70;84.80;;;;;;5054417;28;20028;-71
2022/03/14 01:24:16;;;;;;;57.15;29.95;;;-1.70;85.50;;;;;;5055411;28;20411;-77
2022/03/14 01:26:41;;;;;;;50.03;28.27;;;-1.80;86.10;;;;;;5055717;28;20032;-77
2022/03/14 01:29:07;;;;;;;59.35;28.05;;;-1.80;86.30;;;;;;5055418;28;20021;-77
2022/03/14 01:31:33;;;;;;;58.97;28.55;;;-1.80;86.80;;;;;;5055528;28;20025;-77
2022/03/14 01:33:59;;;;;;;55.08;27.50;;;-1.80;87.10;;;;;;5055307;28;20107;-77
2022/03/14 01:36:24;;;;;;;55.70;27.40;;;-1.80;87.30;;;;;;5055516;28;20368;-77
2022/03/14 01:38:50;;;;;;;49.38;26.90;;;-1.90;87.80;;;;;;5055499;28;20102;-71
2022/03/14 01:41:19;;;;;;;52.15;25.15;;;-2.00;88.50;;;;;;5054006;28;20025;-70
2022/03/14 01:43:48;;;;;;;45.75;24.25;;;-2.00;89.60;;;;;;5055404;28;20040;-77
2022/03/14 01:46:18;;;;;;;54.83;28.05;;;-2.10;90.70;;;;;;5055183;28;20044;-70
2022/03/14 01:48:44;;;;;;;45.97;24.75;;;-2.10;90.50;;;;;;5055254;28;20022;-70
2022/03/14 01:51:10;;;;;;;46.20;25.10;;;-2.20;91.40;;;;;;5055028;28;20100;-77
2022/03/14 01:53:36;;;;;;;55.05;26.98;;;-2.20;92.00;;;;;;5053843;28;20116;-77
2022/03/14 01:56:02;;;;;;;52.20;26.73;;;-2.30;93.30;;;;;;5053652;28;20021;-71
2022/03/14 01:58:28;;;;;;;48.25;26.00;;;-2.30;93.40;;;;;;5053824;28;20163;-71
2022/03/14 02:00:54;;;;;;;46.90;24.85;;;-2.20;92.60;;;;;;5054839;28;20486;-71
2022/03/14 02:03:19;;;;;;;58.60;28.55;;;-2.20;92.50;;;;;;5054751;28;20033;-78
2022/03/14 02:05:47;;;;;;;57.70;26.50;;;-2.20;91.60;;;;;;5053605;28;20066;-70
2022/03/14 02:08:12;;;;;;;44.92;25.67;;;-2.20;90.70;;;;;;5053390;28;20029;-77
2022/03/14 02:10:38;;;;;;;52.30;27.15;;;-2.20;90.00;;;;;;5054752;28;20028;-76
2022/03/14 02:13:08;;;;;;;50.30;26.73;;;-2.10;89.90;;;;;;5054653;28;20025;-71
2022/03/14 02:15:35;;;;;;;47.45;27.02;;;-2.10;90.30;;;;;;5054586;28;20486;-77
2022/03/14 02:18:01;;;;;;;47.10;26.73;;;-2.10;89.70;;;;;;5054644;28;20025;-77
2022/03/14 02:20:27;;;;;;;44.13;24.67;;;-2.20;90.40;;;;;;5053374;28;20026;-77
2022/03/14 02:22:52;;;;;;;45.70;24.70;;;-2.20;91.50;;;;;;5054727;28;20056;-78
2022/03/14 02:25:18;;;;;;;48.45;25.40;;;-2.30;91.30;;;;;;5054451;28;20119;-70
2022/03/14 02:27:44;;;;;;;52.50;27.15;;;-2.30;91.60;;;;;;5054476;28;20025;-76
2022/03/14 02:30:10;;;;;;;48.95;26.33;;;-2.30;92.30;;;;;;5053053;28;20056;-72
2022/03/14 02:32:40;;;;;;;49.85;26.77;;;-2.40;92.90;;;;;;5054352;28;20064;-78
2022/03/14 02:35:10;;;;;;;46.58;26.00;;;-2.40;93.50;;;;;;5054508;28;20108;-70
2022/03/14 02:37:36;;;;;;;52.03;26.77;;;-2.40;93.90;;;;;;5054344;28;20422;-78
2022/03/14 02:40:03;;;;;;;48.25;26.35;;;-2.40;94.30;;;;;;5054123;28;20052;-70
2022/03/14 02:42:28;;;;;;;49.45;23.92;;;-2.30;94.30;;;;;;5054268;28;20032;-78
2022/03/14 02:44:54;;;;;;;47.83;25.52;;;-2.40;94.70;;;;;;5054035;28;20041;-78
2022/03/14 02:47:20;;;;;;;48.50;27.48;;;-2.40;94.50;;;;;;5054114;28;20027;-77
2022/03/14 02:49:45;;;;;;;48.35;26.92;;;-2.30;94.80;;;;;;5053885;28;20053;-70
2022/03/14 02:52:11;;;;;;;49.20;25.00;;;-2.30;94.20;;;;;;5052841;28;20025;-77
2022/03/14 02:54:37;;;;;;;51.17;26.08;;;-2.30;95.30;;;;;;5053923;28;20539;-70
2022/03/14 02:57:03;;;;;;;52.40;26.55;;;-2.30;95.20;;;;;;5053515;28;20025;-78
2022/03/14 02:59:28;;;;;;;48.13;24.65;;;-2.30;95.60;;;;;;5053777;28;20017;-77
2022/03/14 03:01:54;;;;;;;50.53;25.88;;;-2.30;95.20;;;;;;5052349;28;20047;-78
2022/03/14 03:04:20;;;;;;;51.35;27.23;;;-2.30;95.40;;;;;;5052100;28;20083;-78
2022/03/14 03:06:45;;;;;;;49.75;26.45;;;-2.30;95.60;;;;;;5053569;28;20017;-77
2022/03/14 03:09:11;;;;;;;55.45;28.17;;;-2.30;95.70;;;;;;5053305;28;20405;-77
2022/03/14 03:11:37;;;;;;;52.17;27.35;;;-2.30;95.90;;;;;;5053518;28;20029;-78
2022/03/14 03:14:03;;;;;;;48.28;26.27;;;-2.30;95.20;;;;;;5053313;28;20514;-77
2022/03/14 03:16:31;;;;;;;50.20;25.13;;;-2.30;95.00;;;;;;5052136;28;20018;-77
2022/03/14 03:18:57;;;;;;;48.83;26.58;;;-2.30;94.50;;;;;;5052543;28;20513;-70
2022/03/14 03:21:23;;;;;;;60.00;28.48;;;-2.30;94.70;;;;;;5053313;28;20439;-77
2022/03/14 03:23:49;;;;;;;58.35;27.80;;;-2.30;94.80;;;;;;5052912;28;20522;-70
2022/03/14 03:26:15;;;;;;;48.80;26.75;;;-2.30;94.70;;;;;;5052989;28;20023;-70
2022/03/14 03:28:41;;;;;;;45.70;27.13;;;-2.30;94.50;;;;;;5052904;28;20494;-71
2022/03/14 03:31:09;;;;;;;49.35;25.80;;;-2.30;93.70;;;;;;5053056;28;20390;-77
2022/03/14 03:33:36;;;;;;;49.13;26.30;;;-2.40;93.00;;;;;;5051918;28;20028;-77
2022/03/14 03:36:02;;;;;;;55.60;28.02;;;-2.40;92.60;;;;;;5053040;28;20021;-78
2022/03/14 03:38:28;;;;;;;47.88;27.73;;;-2.40;93.50;;;;;;5051644;28;20024;-77
2022/03/14 03:40:53;;;;;;;51.10;26.55;;;-2.40;93.40;;;;;;5053033;28;20025;-78
2022/03/14 03:43:19;;;;;;;51.78;26.10;;;-2.50;93.90;;;;;;5053105;28;20086;-70
2022/03/14 03:45:45;;;;;;;48.70;26.25;;;-2.50;94.60;;;;;;5053111;28;20028;-78
2022/03/14 03:48:10;;;;;;;60.72;27.13;;;-2.60;94.40;;;;;;5052624;28;20478;-70
2022/03/14 03:50:36;;;;;;;49.03;24.38;;;-2.60;94.80;;;;;;5051835;28;20486;-77
2022/03/14 03:53:01;;;;;;;55.83;27.45;;;-2.60;95.20;;;;;;5053003;28;20070;-78
2022/03/14 03:55:27;;;;;;;47.45;26.63;;;-2.60;95.60;;;;;;5051804;28;20066;-77
2022/03/14 03:57:53;;;;;;;47.60;26.20;;;-2.60;95.90;;;;;;5053033;28;20047;-70
2022/03/14 04:00:19;;;;;;;56.72;26.90;;;-2.60;96.10;;;;;;5051763;28;20503;-71
2022/03/14 04:02:45;;;;;;;51.90;26.45;;;-2.50;96.00;;;;;;5053005;28;20025;-77
2022/03/14 04:05:14;;;;;;;51.08;26.70;;;-2.60;95.70;;;;;;5052837;28;20037;-78
2022/03/14 04:07:40;;;;;;;54.42;28.00;;;-2.60;95.40;;;;;;5052835;28;20029;-70
2022/03/14 04:10:06;;;;;;;53.08;25.35;;;-2.60;95.40;;;;;;5053002;28;20063;-77
2022/03/14 04:12:32;;;;;;;56.35;27.48;;;-2.70;95.80;;;;;;5052827;28;20033;-70
2022/03/14 04:14:58;;;;;;;51.45;27.65;;;-2.70;95.80;;;;;;5052652;28;20021;-77
2022/03/14 04:17:25;;;;;;;46.00;25.30;;;-2.70;95.90;;;;;;5052925;28;20057;-77
2022/03/14 04:19:52;;;;;;;48.22;25.48;;;-2.70;94.80;;;;;;5051710;28;20075;-78
2022/03/14 04:22:19;;;;;;;48.45;25.98;;;-2.70;94.90;;;;;;5052949;28;20033;-78
2022/03/14 04:24:45;;;;;;;54.05;26.83;;;-2.70;95.40;;;;;;5052592;28;20049;-70
2022/03/14 04:27:11;;;;;;;48.53;26.25;;;-2.80;95.90;;;;;;5052764;28;20427;-70
2022/03/14 04:29:36;;;;;;;49.45;26.42;;;-2.80;96.80;;;;;;5053872;28;20020;-70
2022/03/14 04:32:02;;;;;;;47.17;26.10;;;-2.80;96.80;;;;;;5055363;28;20063;-77
2022/03/14 04:34:28;;;;;;;53.47;26.35;;;-2.80;96.80;;;;;;5056509;28;20048;-77
2022/03/14 04:36:54;;;;;;;52.47;27.70;;;-2.90;97.20;;;;;;5056446;28;20032;-70
2022/03/14 04:39:20;;;;;;;53.22;26.33;;;-2.90;97.70;;;;;;5055258;28;20021;-70
2022/03/14 04:41:46;;;;;;;50.55;27.95;;;-3.00;98.10;;;;;;5055149;28;20025;-78
2022/03/14 04:44:12;;;;;;;49.60;28.07;;;-3.00;98.20;;;;;;5056163;28;20163;-78
2022/03/14 04:46:38;;;;;;;54.75;29.17;;;-3.00;99.20;;;;;;5056433;28;20100;-70
2022/03/14 04:49:05;;;;;;;52.70;27.08;;;-3.00;99.80;;;;;;5055074;28;20017;-77
2022/03/14 04:51:31;;;;;;;52.10;29.60;;;-3.00;99.90;;;;;;5056213;28;20032;-70
2022/03/14 04:53:57;;;;;;;59.42;29.58;;;-3.00;99.90;;;;;;5056186;28;20025;-77
2022/03/14 04:56:23;;;;;;;66.53;31.75;;;-3.00;99.90;;;;;;5056742;28;20036;-70
2022/03/14 04:58:48;;;;;;;51.90;29.05;;;-3.00;99.90;;;;;;5056155;28;20022;-77
2022/03/14 05:01:14;;;;;;;59.55;31.02;;;-3.00;99.90;;;;;;5056139;28;20100;-75
2022/03/14 05:03:40;;;;;;;59.38;28.92;;;-3.00;99.90;;;;;;5055839;28;20453;-70
2022/03/14 05:06:05;;;;;;;49.00;27.33;;;-3.00;99.90;;;;;;5055845;28;20067;-78
2022/03/14 05:08:31;;;;;;;53.55;27.73;;;-2.90;99.80;;;;;;5055987;28;20025;-71
2022/03/14 05:10:57;;;;;;;57.90;27.42;;;-2.90;99.40;;;;;;5055893;28;20025;-70
2022/03/14 05:13:23;;;;;;;57.90;28.20;;;-2.90;98.70;;;;;;5056031;28;20070;-77
2022/03/14 05:15:49;;;;;;;51.08;27.05;;;-2.90;98.60;;;;;;5055755;28;20029;-71
2022/03/14 05:18:14;;;;;;;45.53;28.08;;;-2.90;98.40;;;;;;5054497;28;20383;-77
2022/03/14 05:20:40;;;;;;;57.70;28.77;;;-2.90;97.40;;;;;;5055711;28;20043;-71
2022/03/14 05:23:06;;;;;;;57.05;29.60;;;-2.80;97.70;;;;;;5055329;28;20489;-77
2022/03/14 05:25:32;;;;;;;54.13;25.45;;;-2.80;97.60;;;;;;5054452;28;20068;-77
2022/03/14 05:27:58;;;;;;;55.80;26.63;;;-2.80;97.90;;;;;;5055680;28;20056;-70
2022/03/14 05:30:24;;;;;;;53.83;27.00;;;-2.80;97.50;;;;;;5055587;28;20029;-71
2022/03/14 05:32:51;;;;;;;49.65;27.38;;;-2.80;96.90;;;;;;5055611;28;20425;-70
2022/03/14 05:35:16;;;;;;;63.00;29.77;;;-2.80;97.90;;;;;;5054258;28;20025;-77
2022/03/14 05:37:43;;;;;;;55.72;29.45;;;-2.70;98.90;;;;;;5055579;28;20021;-77
2022/03/14 05:40:10;;;;;;;62.47;27.52;;;-2.70;98.50;;;;;;5055288;28;20032;-71
2022/03/14 05:42:36;;;;;;;54.47;29.08;;;-2.70;98.50;;;;;;5054831;28;20025;-77
2022/03/14 05:45:02;;;;;;;68.05;31.50;;;-2.60;98.30;;;;;;5055252;28;20036;-71
2022/03/14 05:47:28;;;;;;;67.03;33.30;;;-2.60;98.30;;;;;;5055282;28;20083;-78
2022/03/14 05:49:54;;;;;;;57.17;31.05;;;-2.50;98.50;;;;;;5055154;28;20024;-72
2022/03/14 05:52:21;;;;;;;63.13;32.13;;;-2.50;98.50;;;;;;5053529;28;20455;-77
2022/03/14 05:54:47;;;;;;;60.90;32.17;;;-2.40;98.80;;;;;;5055090;28;20021;-70
2022/03/14 05:57:12;;;;;;;60.40;32.30;;;-2.30;98.50;;;;;;5055090;28;20029;-70
2022/03/14 05:59:38;;;;;;;57.67;30.35;;;-2.30;98.30;;;;;;5055058;28;20470;-78
2022/03/14 06:02:04;;;;;;;58.95;29.95;;;-2.20;97.70;;;;;;5054677;28;20025;-78
2022/03/14 06:04:32;;;;;;;56.55;30.15;;;-2.10;97.70;;;;;;5053082;28;20052;-71
2022/03/14 06:06:58;;;;;;;66.55;29.02;;;-1.90;96.40;;;;;;5054442;28;20471;-73
2022/03/14 06:09:28;;;;;;;56.90;29.98;;;-1.80;94.50;;;;;;5045029;28;20092;-78
2022/03/14 06:11:54;;;;;;;60.83;30.25;;;-1.70;94.60;;;;;;5053305;28;20025;-77
2022/03/14 06:14:20;;;;;;;62.30;32.13;;;-1.60;93.90;;;;;;5053492;28;20501;-76
2022/03/14 06:16:46;;;;;;;61.45;30.67;;;-1.50;91.70;;;;;;5053454;28;20033;-77
2022/03/14 06:19:11;;;;;;;64.57;30.88;;;-1.30;89.90;;;;;;5053071;28;20560;-77
2022/03/14 06:21:39;;;;;;;59.13;30.55;;;-1.20;89.10;;;;;;5052796;28;20024;-76
2022/03/14 06:24:05;;;;;;;60.53;28.25;;;-1.10;87.80;;;;;;5051475;28;20044;-75
2022/03/14 06:26:34;;;;;;;59.03;29.63;;;-0.90;87.60;;;;;;5053252;28;20021;-73
2022/03/14 06:28:59;;;;;;;58.92;30.95;;;-0.80;84.70;;;;;;5051494;28;20088;-74
2022/03/14 06:31:25;;;;;;;60.38;29.83;;;-0.60;83.90;;;;;;5052253;28;20096;-77
2022/03/14 06:33:51;;;;;;;59.67;31.85;;;-0.50;83.60;;;;;;5051469;28;20064;-77
2022/03/14 06:36:17;;;;;;;65.20;31.73;;;-0.30;83.30;;;;;;5053428;28;20493;-77
2022/03/14 06:38:42;;;;;;;58.38;30.33;;;-0.20;81.40;;;;;;5052320;28;20045;-76
2022/03/14 06:41:09;;;;;;;56.72;30.15;;;-0.10;80.00;;;;;;5053219;28;20033;-76
2022/03/14 06:43:35;;;;;;;62.15;32.25;;;0.10;79.40;;;;;;5051813;28;20055;-76
2022/03/14 06:46:03;;;;;;;58.40;30.98;;;0.20;78.20;;;;;;5047957;28;20037;-76
2022/03/14 06:48:29;;;;;;;59.65;29.55;;;0.40;77.80;;;;;;5053719;28;20025;-76
2022/03/14 06:50:55;;;;;;;56.38;31.20;;;0.60;76.90;;;;;;5053427;28;20125;-73
2022/03/14 06:53:20;;;;;;;57.40;32.28;;;0.70;75.40;;;;;;5051486;28;20123;-73
2022/03/14 06:55:46;;;;;;;63.42;29.08;;;0.90;74.10;;;;;;5053269;28;20028;-76
2022/03/14 06:58:11;;;;;;;52.03;29.45;;;1.00;71.80;;;;;;5052379;28;20219;-76
2022/03/14 07:00:37;;;;;;;65.25;31.70;;;1.10;70.90;;;;;;5052612;28;20021;-74
2022/03/14 07:03:02;;;;;;;52.63;29.42;;;1.30;71.10;;;;;;5051501;28;20425;-74
2022/03/14 07:05:28;;;;;;;58.58;29.35;;;1.40;70.10;;;;;;5051237;28;20037;-74
2022/03/14 07:07:54;;;;;;;55.30;31.40;;;1.60;69.70;;;;;;5051394;28;20029;-70
2022/03/14 07:10:20;;;;;;;56.17;30.90;;;1.70;68.40;;;;;;5051341;28;20025;-71
2022/03/14 07:12:49;;;;;;;49.80;26.77;;;1.90;68.10;;;;;;5051223;28;20140;-70
2022/03/14 07:15:18;;;;;;;51.13;30.15;;;2.10;67.20;;;;;;5050266;28;20445;-74
2022/03/14 07:17:44;;;;;;;52.72;28.52;;;2.20;66.70;;;;;;5051226;28;20048;-74
2022/03/14 07:20:11;;;;;;;56.67;28.25;;;2.40;65.60;;;;;;5051093;28;20052;-74
2022/03/14 07:22:58;;;;;;;47.85;25.65;;;2.60;65.60;;;;;;5049624;28;20016;-74
2022/03/14 07:25:29;;;;;;;52.25;25.70;;;2.80;63.20;;;;;;5050990;28;20037;-74
2022/03/14 07:27:58;;;;;;;42.38;25.70;;;3.00;61.70;;;;;;5048783;28;20032;-74
2022/03/14 07:30:24;;;;;;;45.70;24.70;;;3.10;60.90;;;;;;5051364;28;20052;-74
2022/03/14 07:32:50;;;;;;;45.92;25.83;;;3.20;59.80;;;;;;5051168;28;20025;-74
2022/03/14 07:35:16;;;;;;;44.45;24.88;;;3.40;59.60;;;;;;5052811;28;20483;-74
2022/03/14 07:37:42;;;;;;;43.67;23.38;;;3.60;59.10;;;;;;5051761;28;20078;-70
2022/03/14 07:40:09;;;;;;;53.50;23.80;;;3.90;58.40;;;;;;5053068;28;20024;-71
2022/03/14 07:42:46;;;;;;;44.20;23.25;;;4.10;57.10;;;;;;5051305;28;20049;-70
2022/03/14 07:45:14;;;;;;;45.35;24.75;;;4.20;56.70;;;;;;5052885;28;20067;-70
2022/03/14 07:47:40;;;;;;;36.72;20.90;;;4.40;55.90;;;;;;5052828;28;20086;-74
2022/03/14 07:50:07;;;;;;;38.90;22.25;;;4.60;54.60;;;;;;5051586;28;20048;-70
2022/03/14 07:52:34;;;;;;;38.22;22.85;;;4.70;54.30;;;;;;5052617;28;20356;-70
2022/03/14 07:55:00;;;;;;;36.60;21.55;;;4.90;54.10;;;;;;5052585;28;20063;-70
2022/03/14 07:57:26;;;;;;;42.35;21.38;;;4.90;53.90;;;;;;5052790;28;20025;-74
2022/03/14 07:59:52;;;;;;;39.05;23.25;;;5.10;53.60;;;;;;5051531;28;20025;-74
2022/03/14 08:02:18;;;;;;;42.38;21.38;;;5.20;52.80;;;;;;5052804;28;20085;-73
2022/03/14 08:04:43;;;;;;;38.72;21.20;;;5.30;52.60;;;;;;5053237;28;20037;-74
2022/03/14 08:07:09;;;;;;;35.10;21.73;;;5.50;52.00;;;;;;5056078;28;20037;-74
2022/03/14 08:09:34;;;;;;;43.17;21.88;;;5.70;51.10;;;;;;5055694;28;20211;-73
2022/03/14 08:12:01;;;;;;;33.50;19.25;;;5.80;50.40;;;;;;5055515;28;20116;-74
2022/03/14 08:14:27;;;;;;;30.00;19.02;;;6.00;49.50;;;;;;5056831;28;20013;-73
2022/03/14 08:16:53;;;;;;;34.20;19.30;;;6.10;49.10;;;;;;5056542;28;20028;-70
2022/03/14 08:19:20;;;;;;;29.58;18.13;;;6.30;48.70;;;;;;5056808;28;20043;-74
2022/03/14 08:21:47;;;;;;;37.63;20.65;;;6.40;47.00;;;;;;5055394;28;20029;-73
2022/03/14 08:24:13;;;;;;;32.95;18.73;;;6.60;46.50;;;;;;5056494;28;20052;-70
2022/03/14 08:26:39;;;;;;;32.85;16.45;;;6.70;46.30;;;;;;5055031;28;20025;-73
2022/03/14 08:29:05;;;;;;;22.52;13.57;;;6.90;45.50;;;;;;5056576;28;20059;-70
2022/03/14 08:31:32;;;;;;;25.67;15.48;;;7.10;42.90;;;;;;5056606;28;20067;-71
2022/03/14 08:33:57;;;;;;;22.75;13.43;;;7.20;43.00;;;;;;5056507;28;20017;-71
2022/03/14 08:36:23;;;;;;;21.58;13.75;;;7.40;42.40;;;;;;5054900;28;20033;-71
2022/03/14 08:38:49;;;;;;;24.40;13.63;;;7.50;41.00;;;;;;5056325;28;20390;-71
2022/03/14 08:41:16;;;;;;;22.27;13.38;;;7.70;40.80;;;;;;5056351;28;20029;-71
2022/03/14 08:43:43;;;;;;;23.25;13.45;;;7.80;39.80;;;;;;5056351;28;20044;-71
2022/03/14 08:46:09;;;;;;;18.90;10.15;;;7.90;40.80;;;;;;5054703;28;20693;-74
2022/03/14 08:48:35;;;;;;;18.85;10.70;;;8.10;38.50;;;;;;5055996;28;20100;-71
2022/03/14 08:51:00;;;;;;;20.02;11.55;;;8.20;37.50;;;;;;5056302;28;20096;-74
2022/03/14 08:53:26;;;;;;;21.58;12.63;;;8.30;37.40;;;;;;5055999;28;20032;-72
2022/03/14 08:55:52;;;;;;;17.30;11.30;;;8.30;37.50;;;;;;5056173;28;20020;-74
2022/03/14 08:58:17;;;;;;;20.98;12.38;;;8.40;37.80;;;;;;5055740;28;20471;-73
2022/03/14 09:00:43;;;;;;;20.45;11.57;;;8.50;38.40;;;;;;5055795;28;20047;-77
2022/03/14 09:03:09;;;;;;;18.52;11.55;;;8.60;37.20;;;;;;5054770;28;20035;-76
2022/03/14 09:05:35;;;;;;;16.67;11.10;;;8.70;37.20;;;;;;5053362;28;20075;-74
2022/03/14 09:08:02;;;;;;;17.77;10.38;;;8.80;36.80;;;;;;5054458;28;20543;-74
2022/03/14 09:10:28;;;;;;;16.33;9.38;;;9.00;36.40;;;;;;5055500;28;20020;-71
2022/03/14 09:12:55;;;;;;;17.17;9.80;;;9.10;36.50;;;;;;5055714;28;20029;-73
2022/03/14 09:15:21;;;;;;;15.38;9.93;;;9.20;36.30;;;;;;5055620;28;20044;-73
2022/03/14 09:17:50;;;;;;;12.52;8.85;;;9.30;36.60;;;;;;5053736;28;20059;-70
2022/03/14 09:20:17;;;;;;;15.00;9.00;;;9.50;36.30;;;;;;5055574;28;20017;-71
2022/03/14 09:22:44;;;;;;;17.05;9.30;;;9.50;36.50;;;;;;5055396;28;20116;-74
2022/03/14 09:25:11;;;;;;;14.63;8.85;;;9.60;36.00;;;;;;5053896;28;20045;-71
2022/03/14 09:27:37;;;;;;;14.63;8.45;;;9.80;34.70;;;;;;5055069;28;20055;-73
2022/03/14 09:30:04;;;;;;;16.58;9.05;;;9.80;35.40;;;;;;5055255;28;20061;-71
2022/03/14 09:32:30;;;;;;;26.17;14.95;;;10.00;34.10;;;;;;5052789;28;20032;-71
2022/03/14 09:34:59;;;;;;;12.75;7.97;;;10.10;34.90;;;;;;5054488;28;20028;-71
2022/03/14 09:37:28;;;;;;;20.60;11.32;;;10.30;34.70;;;;;;5052953;28;20017;-71
2022/03/14 09:39:54;;;;;;;24.42;9.02;;;10.40;32.80;;;;;;5054574;28;20025;-72
2022/03/14 09:42:21;;;;;;;9.73;5.57;;;10.50;32.80;;;;;;5054453;28;20029;-70
2022/03/14 09:44:53;;;;;;;25.02;12.00;;;10.60;32.20;;;;;;5053039;28;20033;-71
2022/03/14 09:47:22;;;;;;;12.13;7.35;;;10.70;31.60;;;;;;5054895;28;20108;-73
2022/03/14 09:49:52;;;;;;;15.45;7.97;;;10.80;31.10;;;;;;5055186;28;20389;-74
2022/03/14 09:52:18;;;;;;;11.18;6.85;;;10.90;32.30;;;;;;5053966;28;20470;-71
2022/03/14 09:54:44;;;;;;;13.10;7.13;;;11.00;32.30;;;;;;5053881;28;20096;-72
2022/03/14 09:57:10;;;;;;;10.98;6.18;;;11.10;31.90;;;;;;5055131;28;20389;-72
2022/03/14 09:59:37;;;;;;;6.50;5.50;;;11.10;31.50;;;;;;5055181;28;20021;-72
2022/03/14 10:02:03;;;;;;;9.32;6.68;;;11.10;31.60;;;;;;5054981;28;20048;-72
2022/03/14 10:04:29;;;;;;;9.98;6.75;;;11.00;31.70;;;;;;5053738;28;20025;-72
2022/03/14 10:06:54;;;;;;;8.40;6.25;;;11.10;32.00;;;;;;5054977;28;20067;-72
2022/03/14 10:09:20;;;;;;;8.73;6.20;;;11.10;31.60;;;;;;5053756;28;20478;-73
2022/03/14 10:11:45;;;;;;;8.98;5.50;;;11.10;31.90;;;;;;5053594;28;20021;-72
2022/03/14 10:14:19;;;;;;;6.45;4.82;;;11.30;32.00;;;;;;5054047;28;20064;-73
2022/03/14 10:16:44;;;;;;;5.13;4.03;;;11.40;31.40;;;;;;5053714;28;20100;-72
2022/03/14 10:19:10;;;;;;;8.05;5.25;;;11.50;31.10;;;;;;5053837;28;20530;-73
2022/03/14 10:21:39;;;;;;;9.50;4.82;;;11.60;31.30;;;;;;5052510;28;20069;-72
2022/03/14 10:24:10;;;;;;;6.85;5.22;;;11.50;31.50;;;;;;5052075;28;20469;-72
2022/03/14 10:26:40;;;;;;;7.13;4.63;;;11.50;31.50;;;;;;5052454;28;20053;-73
2022/03/14 10:29:13;;;;;;;12.00;7.55;;;11.50;30.10;;;;;;5053508;28;20017;-73
2022/03/14 10:31:41;;;;;;;8.55;5.00;;;11.50;30.00;;;;;;5053329;28;20075;-73
2022/03/14 10:34:15;;;;;;;8.07;4.78;;;11.50;31.60;;;;;;5054601;28;20034;-73
2022/03/14 10:36:45;;;;;;;8.07;4.55;;;11.40;30.70;;;;;;5053147;28;20021;-72
2022/03/14 10:39:18;;;;;;;5.88;4.68;;;11.50;30.80;;;;;;5054511;28;20039;-72
2022/03/14 10:42:07;;;;;;;5.05;3.72;;;11.60;31.50;;;;;;5054481;28;20025;-74
2022/03/14 10:44:36;;;;;;;6.10;4.07;;;11.60;32.20;;;;;;5053954;28;20545;-74
2022/03/14 10:47:03;;;;;;;7.18;4.80;;;11.70;32.60;;;;;;5053156;28;20455;-72
2022/03/14 10:49:31;;;;;;;5.65;3.72;;;11.60;31.50;;;;;;5054218;28;20395;-72
2022/03/14 10:52:03;;;;;;;11.20;6.90;;;11.70;30.90;;;;;;5054206;28;20021;-72
2022/03/14 10:54:29;;;;;;;4.78;3.75;;;11.80;31.60;;;;;;5054299;28;20049;-73
2022/03/14 10:57:16;;;;;;;7.55;5.65;;;11.90;32.00;;;;;;5054142;28;20017;-72
2022/03/14 10:59:44;;;;;;;6.00;4.35;;;11.90;32.00;;;;;;5054177;28;20078;-73
2022/03/14 11:02:11;;;;;;;7.95;4.80;;;11.80;31.00;;;;;;5053871;28;20029;-72
2022/03/14 11:04:44;;;;;;;6.88;4.97;;;11.80;31.60;;;;;;5053924;28;20040;-73
2022/03/14 11:07:10;;;;;;;;;;;11.70;30.40;;;;;;5054473;28;20036;-73
2022/03/14 11:09:40;;;;;;;8.98;5.68;;;11.80;31.20;;;;;;5053984;28;19905;-74
2022/03/14 11:12:10;;;;;;;6.78;4.95;;;11.90;31.90;;;;;;5052483;28;20025;-73
2022/03/14 11:14:36;;;;;;;16.38;8.90;;;11.90;30.80;;;;;;5054214;28;20055;-74
2022/03/14 11:17:14;;;;;;;22.85;11.55;;;12.00;29.90;;;;;;5052561;28;20367;-72
2022/03/14 11:19:41;;;;;;;7.45;5.43;;;12.00;30.10;;;;;;5052515;28;20033;-74
2022/03/14 11:22:12;;;;;;;7.15;4.78;;;12.10;31.20;;;;;;5052530;28;20043;-73
2022/03/14 11:24:46;;;;;;;7.00;4.90;;;12.00;32.00;;;;;;5053573;28;20080;-74
2022/03/14 11:27:21;;;;;;;12.65;7.55;;;12.00;31.10;;;;;;5053531;28;20976;-72
2022/03/14 11:29:48;;;;;;;8.00;5.53;;;12.10;31.10;;;;;;5052255;28;20028;-73
2022/03/14 11:32:15;;;;;;;6.13;4.30;;;12.10;31.40;;;;;;5053516;28;20021;-73
2022/03/14 11:34:42;;;;;;;6.68;4.90;;;12.20;32.70;;;;;;5052263;28;20009;-74
2022/03/14 11:37:10;;;;;;;7.30;5.47;;;12.20;32.40;;;;;;5053409;28;20490;-72
2022/03/14 11:39:36;;;;;;;8.50;6.22;;;12.20;32.70;;;;;;5052952;28;20096;-73
2022/03/14 11:42:02;;;;;;;8.23;5.32;;;12.20;32.50;;;;;;5053336;28;20027;-73
2022/03/14 11:44:28;;;;;;;10.52;5.85;;;12.10;31.20;;;;;;5052075;28;20072;-73
2022/03/14 11:46:55;;;;;;;14.50;8.00;;;12.20;31.40;;;;;;5052052;28;20017;-73
2022/03/14 11:49:24;;;;;;;133.77;43.50;;;12.20;30.70;;;;;;5052214;28;20076;-72
2022/03/14 11:51:50;;;;;;;25.73;10.63;;;12.20;30.50;;;;;;5052001;28;20367;-74
2022/03/14 11:54:15;;;;;;;12.15;6.97;;;12.30;30.50;;;;;;5053345;28;20021;-73
2022/03/14 11:56:57;;;;;;;10.52;6.78;;;12.30;32.00;;;;;;5053173;28;20025;-73
2022/03/14 11:59:27;;;;;;;9.50;7.65;;;12.40;32.50;;;;;;5052080;28;20047;-73
2022/03/14 12:01:55;;;;;;;14.43;7.82;;;12.30;32.40;;;;;;5053221;28;20021;-74
2022/03/14 12:04:36;;;;;;;9.63;7.20;;;12.30;31.30;;;;;;5053158;28;20040;-72
2022/03/14 12:07:07;;;;;;;12.68;9.30;;;12.40;31.40;;;;;;5053321;28;20104;-73
2022/03/14 12:09:33;;;;;;;11.63;8.05;;;12.40;31.40;;;;;;5053437;28;20056;-72
2022/03/14 12:12:21;;;;;;;13.80;8.45;;;12.50;31.60;;;;;;5053159;28;20029;-72
2022/03/14 12:14:48;;;;;;;17.13;8.98;;;12.50;31.20;;;;;;5053131;28;20074;-74
2022/03/14 12:17:13;;;;;;;14.20;8.30;;;12.50;30.50;;;;;;5053119;28;20151;-72
2022/03/14 12:19:56;;;;;;;34.72;17.20;;;12.50;30.10;;;;;;5053082;28;20075;-72
2022/03/14 12:22:32;;;;;;;57.00;20.27;;;12.40;29.70;;;;;;5053140;28;20028;-73
2022/03/14 12:25:03;;;;;;;17.90;7.32;;;12.40;29.70;;;;;;5052882;28;20045;-72
2022/03/14 12:27:35;;;;;;;32.38;11.15;;;12.50;30.40;;;;;;5053162;28;20017;-73
2022/03/14 12:30:18;;;;;;;17.07;7.33;;;12.50;30.10;;;;;;5052959;28;20021;-72
2022/03/14 12:32:49;;;;;;;22.33;9.85;;;12.60;30.60;;;;;;5053008;28;20330;-73